Taurus — 2CPB4 — position and weather

sailwx.info

Track history (hours):
 
Tides and Currents Weather Stations Pressure Air Temp Water Temp Dewpoint Dewpoint Depression Visibility Wind Speed Wind Dir Waves Ship Positions

Taurus

Last reported at 2016-Aug-25 02:28 UTC. Time now 2016-Aug-25 13:12 UTC.
Position N 37°23' E 123°49'.

Length 292 m; draft 8.1 m.

Type: Cargo ship. MMSI: 235074621.

Date/timePositionNaut miles runAvg speedWind from/ knotsBaromVisibWave heightAir tempDewpointWater temp
2016-Aug-25 02:28N 37°23' E 123°49'9 9.5
2016-Aug-25 01:30N 37°32' E 123°48'9 9.6
2016-Aug-25 00:33N 37°41' E 123°48'1010.1
2016-Aug-24 23:33N 37°51' E 123°48'1110.7
2016-Aug-24 22:32N 38°02' E 123°48'1110.8
2016-Aug-24 21:33N 38°12' E 123°47'1111.3
2016-Aug-24 20:33N 38°24' E 123°47'1110.9
2016-Aug-24 19:33N 38°35' E 123°46'1110.5
2016-Aug-24 18:33N 38°45' E 123°47'2010.0
2016-Aug-24 16:31N 39°05' E 123°51'  
Track history (hours):
 
Tides and Currents Weather Stations Pressure Air Temp Water Temp Dewpoint Dewpoint Depression Visibility Wind Speed Wind Dir Waves Ship Positions

Taurus

Last reported at 2016-Aug-25 02:28 UTC. Time now 2016-Aug-25 13:12 UTC.
Position N 37°23' E 123°49'.

Length 292 m; draft 8.1 m.

Type: Cargo ship. MMSI: 235074621.

Date/timePositionNaut miles runAvg speedWind from/ knotsBaromVisibWave heightAir tempDewpointWater temp
2016-Aug-25 02:28N 37°23' E 123°49'9 9.5
2016-Aug-25 01:30N 37°32' E 123°48'9 9.6
2016-Aug-25 00:33N 37°41' E 123°48'1010.1
2016-Aug-24 23:33N 37°51' E 123°48'1110.7
2016-Aug-24 22:32N 38°02' E 123°48'1110.8
2016-Aug-24 21:33N 38°12' E 123°47'1111.3
2016-Aug-24 20:33N 38°24' E 123°47'1110.9
2016-Aug-24 19:33N 38°35' E 123°46'1110.5
2016-Aug-24 18:33N 38°45' E 123°47'2010.0
2016-Aug-24 16:31N 39°05' E 123°51'  

Dump ship's entire track history